createdAt,value
2018-12-24T00:00:12.281Z,6.81
2018-12-24T00:01:12.273Z,6.80
2018-12-24T00:02:12.201Z,6.85
2018-12-24T00:03:12.159Z,6.69
2018-12-24T00:04:12.117Z,6.84
2018-12-24T00:05:12.073Z,6.70
2018-12-24T00:06:12.016Z,6.69
2018-12-24T00:07:11.995Z,6.69
2018-12-24T00:08:11.931Z,6.73
2018-12-24T00:09:11.889Z,6.70
2018-12-24T00:10:11.869Z,6.69
2018-12-24T00:11:11.804Z,6.64
2018-12-24T00:12:11.776Z,6.74
2018-12-24T00:13:11.714Z,6.69
2018-12-24T00:14:11.670Z,6.66
2018-12-24T00:15:11.631Z,6.74
2018-12-24T00:16:11.608Z,6.74
2018-12-24T00:17:11.653Z,6.71
2018-12-24T00:18:11.488Z,6.71
2018-12-24T00:19:11.446Z,6.66
2018-12-24T00:20:11.399Z,6.80
2018-12-24T00:21:11.391Z,6.70
2018-12-24T00:22:11.321Z,6.67
2018-12-24T00:23:11.304Z,6.70
2018-12-24T00:24:11.234Z,6.77
2018-12-24T00:25:11.193Z,6.77
2018-12-24T00:26:11.135Z,6.81
2018-12-24T00:27:11.097Z,6.76
2018-12-24T00:28:11.060Z,6.67
2018-12-24T00:29:11.055Z,6.67
2018-12-24T00:30:10.958Z,6.79
2018-12-24T00:31:10.917Z,6.77
2018-12-24T00:32:10.871Z,6.74
2018-12-24T00:33:10.832Z,6.69
2018-12-24T00:34:10.818Z,6.69
2018-12-24T00:35:10.752Z,6.64
2018-12-24T00:36:10.702Z,6.69
2018-12-24T00:37:10.660Z,6.59
2018-12-24T00:38:10.607Z,6.62
2018-12-24T00:39:10.596Z,6.58
2018-12-24T00:40:10.519Z,6.69
2018-12-24T00:41:10.479Z,6.64
2018-12-24T00:42:15.866Z,6.62
2018-12-24T00:43:10.399Z,6.58
2018-12-24T00:44:10.373Z,6.54
2018-12-24T00:45:10.305Z,6.58
2018-12-24T00:46:10.260Z,6.58
2018-12-24T00:47:10.222Z,6.66
2018-12-24T00:48:10.173Z,6.61
2018-12-24T00:49:10.179Z,6.61
2018-12-24T00:50:10.102Z,6.62
2018-12-24T00:51:10.043Z,6.64
2018-12-24T00:52:09.987Z,6.59
2018-12-24T00:53:09.952Z,6.54
2018-12-24T00:54:09.907Z,6.56
2018-12-24T00:55:09.886Z,6.59
2018-12-24T00:56:09.862Z,6.62
2018-12-24T00:57:09.779Z,6.48
2018-12-24T00:58:09.724Z,6.66
2018-12-24T00:59:09.690Z,6.62
2018-12-24T01:00:09.672Z,6.61
2018-12-24T01:01:09.603Z,6.67
2018-12-24T01:02:09.547Z,6.64
2018-12-24T01:03:09.533Z,6.61
2018-12-24T01:04:09.457Z,6.66
2018-12-24T01:05:09.426Z,6.62
2018-12-24T01:06:09.385Z,6.61
2018-12-24T01:07:09.340Z,6.66
2018-12-24T01:08:09.296Z,6.67
2018-12-24T01:09:09.270Z,6.62
2018-12-24T01:10:09.192Z,6.61
2018-12-24T01:11:09.156Z,6.58
2018-12-24T01:12:09.109Z,6.61
2018-12-24T01:13:09.066Z,6.64
2018-12-24T01:14:09.060Z,6.67
2018-12-24T01:15:08.983Z,6.66
2018-12-24T01:16:08.929Z,6.62
2018-12-24T01:17:08.893Z,6.64
2018-12-24T01:18:08.854Z,6.61
2018-12-24T01:19:08.810Z,6.59
2018-12-24T01:20:08.787Z,6.66
2018-12-24T01:21:08.722Z,6.67
2018-12-24T01:22:08.667Z,6.64
2018-12-24T01:23:08.656Z,6.61
2018-12-24T01:24:08.576Z,6.66
2018-12-24T01:25:08.535Z,6.62
2018-12-24T01:26:08.495Z,6.58
2018-12-24T01:27:08.454Z,6.58
2018-12-24T01:28:08.418Z,6.62
2018-12-24T01:29:08.398Z,6.64
2018-12-24T01:30:08.313Z,6.71
2018-12-24T01:31:08.274Z,6.55
2018-12-24T01:32:08.233Z,6.61
2018-12-24T01:33:08.192Z,6.62
2018-12-24T01:34:08.145Z,6.62
2018-12-24T01:35:08.115Z,6.66
2018-12-24T01:36:08.047Z,6.64
2018-12-24T01:37:08.032Z,6.66
2018-12-24T01:38:07.967Z,6.67
2018-12-24T01:39:07.927Z,6.64
2018-12-24T01:40:07.883Z,6.66
2018-12-24T01:41:07.842Z,6.67
2018-12-24T01:42:07.816Z,6.59
2018-12-24T01:43:07.747Z,6.58
2018-12-24T01:44:07.698Z,6.69
2018-12-24T01:45:07.652Z,6.64
2018-12-24T01:46:07.615Z,6.70
2018-12-24T01:47:07.574Z,6.61
2018-12-24T01:48:07.543Z,6.61
2018-12-24T01:49:07.480Z,6.69
2018-12-24T01:50:07.445Z,6.69
2018-12-24T01:51:07.401Z,6.64
2018-12-24T01:52:07.354Z,6.69
2018-12-24T01:53:07.338Z,6.66
2018-12-24T01:54:07.261Z,6.66
2018-12-24T01:55:07.216Z,6.66
2018-12-24T01:56:07.168Z,6.61
2018-12-24T01:57:07.129Z,6.66
2018-12-24T01:58:07.088Z,6.61
2018-12-24T01:59:07.186Z,6.73
2018-12-24T02:00:06.999Z,6.71
2018-12-24T02:01:06.958Z,6.64
2018-12-24T02:02:06.909Z,6.67
2018-12-24T02:03:06.863Z,6.73
2018-12-24T02:04:06.821Z,6.71
2018-12-24T02:05:06.817Z,6.74
2018-12-24T02:06:06.731Z,6.77
2018-12-24T02:07:06.689Z,6.67
2018-12-24T02:08:06.642Z,6.69
2018-12-24T02:09:06.601Z,6.76
2018-12-24T02:10:06.563Z,6.76
2018-12-24T02:11:06.543Z,6.74
2018-12-24T02:12:06.473Z,6.80
2018-12-24T02:13:06.429Z,6.85
2018-12-24T02:14:06.401Z,6.79
2018-12-24T02:15:06.336Z,6.79
2018-12-24T02:16:06.314Z,6.79
2018-12-24T02:17:06.249Z,6.79
2018-12-24T02:18:06.207Z,6.71
2018-12-24T02:19:06.164Z,6.71
2018-12-24T02:20:06.116Z,6.79
2018-12-24T02:21:06.102Z,6.69
2018-12-24T02:22:12.844Z,6.85
2018-12-24T02:23:05.986Z,6.76
2018-12-24T02:24:05.942Z,6.71
2018-12-24T02:25:05.903Z,6.81
2018-12-24T02:26:05.844Z,6.81
2018-12-24T02:27:05.834Z,6.79
2018-12-24T02:28:05.763Z,6.80
2018-12-24T02:29:05.717Z,6.74
2018-12-24T02:30:05.687Z,6.80
2018-12-24T02:31:05.637Z,6.89
2018-12-24T02:32:05.593Z,6.81
2018-12-24T02:33:05.577Z,6.84
2018-12-24T02:34:05.502Z,6.79
2018-12-24T02:35:05.452Z,6.84
2018-12-24T02:36:05.417Z,6.74
2018-12-24T02:37:05.368Z,6.85
2018-12-24T02:38:05.353Z,6.84
2018-12-24T02:39:05.276Z,6.88
2018-12-24T02:40:05.233Z,6.80
2018-12-24T02:41:05.188Z,6.84
2018-12-24T02:42:05.155Z,6.85
2018-12-24T02:43:05.115Z,6.80
2018-12-24T02:44:05.088Z,6.85
2018-12-24T02:45:05.021Z,6.87
2018-12-24T02:46:04.974Z,6.84
2018-12-24T02:47:04.932Z,6.84
2018-12-24T02:48:04.889Z,6.84
2018-12-24T02:49:04.872Z,6.79
2018-12-24T02:50:04.804Z,6.81
2018-12-24T02:51:04.759Z,6.77
2018-12-24T02:52:04.714Z,6.91
2018-12-24T02:53:04.667Z,6.94
2018-12-24T02:54:04.627Z,6.95
2018-12-24T02:55:04.613Z,6.85
2018-12-24T02:56:04.539Z,6.92
2018-12-24T02:57:04.496Z,6.89
2018-12-24T02:58:04.443Z,6.81
2018-12-24T02:59:04.403Z,6.91
2018-12-24T03:00:04.359Z,6.80
2018-12-24T03:01:04.353Z,6.88
2018-12-24T03:02:04.307Z,6.84
2018-12-24T03:03:04.235Z,6.80
2018-12-24T03:04:04.193Z,6.88
2018-12-24T03:05:04.145Z,6.88
2018-12-24T03:06:04.103Z,6.94
2018-12-24T03:07:04.048Z,6.94
2018-12-24T03:08:04.039Z,6.89
2018-12-24T03:09:03.965Z,6.94
2018-12-24T03:10:03.924Z,6.89
2018-12-24T03:11:03.883Z,6.89
2018-12-24T03:12:03.857Z,6.89
2018-12-24T03:13:03.786Z,6.89
2018-12-24T03:14:03.757Z,6.95
2018-12-24T03:15:03.704Z,6.91
2018-12-24T03:16:03.667Z,6.91
2018-12-24T03:17:03.623Z,6.91
2018-12-24T03:18:03.708Z,6.87
2018-12-24T03:19:03.525Z,6.98
2018-12-24T03:20:03.485Z,6.85
2018-12-24T03:21:03.438Z,6.95
2018-12-24T03:22:03.402Z,6.94
2018-12-24T03:23:03.383Z,6.85
2018-12-24T03:24:03.307Z,6.91
2018-12-24T03:25:03.291Z,6.87
2018-12-24T03:26:03.230Z,6.91
2018-12-24T03:27:03.180Z,6.88
2018-12-24T03:28:10.786Z,6.92
2018-12-24T03:29:12.282Z,6.97
2018-12-24T03:30:12.837Z,6.97
2018-12-24T03:31:03.023Z,6.91
2018-12-24T03:32:02.967Z,6.84
2018-12-24T03:33:02.961Z,6.91
2018-12-24T03:34:02.881Z,6.89
2018-12-24T03:35:02.840Z,6.92
2018-12-24T03:36:02.815Z,6.88
2018-12-24T03:37:02.743Z,6.91
2018-12-24T03:38:02.693Z,6.92
2018-12-24T03:39:02.650Z,6.94
2018-12-24T03:40:02.630Z,6.84
2018-12-24T03:41:02.602Z,6.85
2018-12-24T03:42:02.531Z,6.87
2018-12-24T03:43:12.113Z,6.91
2018-12-24T03:44:02.441Z,6.81
2018-12-24T03:45:02.408Z,6.89
2018-12-24T03:46:02.372Z,6.87
2018-12-24T03:47:02.322Z,6.88
2018-12-24T03:48:02.270Z,6.88
2018-12-24T03:49:02.229Z,6.92
2018-12-24T03:50:02.191Z,6.87
2018-12-24T03:51:02.146Z,6.89
2018-12-24T03:52:02.093Z,6.88
2018-12-24T03:53:02.043Z,6.94
2018-12-24T03:54:01.997Z,6.87
2018-12-24T03:55:01.981Z,6.91
2018-12-24T03:56:01.936Z,6.91
2018-12-24T03:57:01.862Z,6.92
2018-12-24T03:58:01.827Z,6.95
2018-12-24T03:59:01.784Z,6.97
2018-12-24T04:00:01.753Z,6.97
2018-12-24T04:01:01.717Z,6.95
2018-12-24T04:02:01.686Z,6.99
2018-12-24T04:03:01.610Z,7.05
2018-12-24T04:04:01.567Z,6.98
2018-12-24T04:05:01.527Z,6.97
2018-12-24T04:06:01.508Z,6.95
2018-12-24T04:07:01.445Z,6.98
2018-12-24T04:08:01.393Z,7.05
2018-12-24T04:09:01.344Z,6.98
2018-12-24T04:10:01.288Z,6.98
2018-12-24T04:11:01.277Z,7.07
2018-12-24T04:12:01.232Z,6.95
2018-12-24T04:13:01.175Z,6.95
2018-12-24T04:14:01.136Z,6.98
2018-12-24T04:15:01.112Z,6.97
2018-12-24T04:16:01.099Z,6.97
2018-12-24T04:17:01.022Z,6.95
2018-12-24T04:18:00.953Z,6.95
2018-12-24T04:19:00.909Z,6.94
2018-12-24T04:20:00.877Z,7.05
2018-12-24T04:21:00.840Z,6.97
2018-12-24T04:22:00.798Z,6.98
2018-12-24T04:23:00.758Z,6.95
2018-12-24T04:24:00.705Z,6.94
2018-12-24T04:25:00.684Z,6.98
2018-12-24T04:26:00.612Z,6.98
2018-12-24T04:27:00.572Z,7.06
2018-12-24T04:28:00.522Z,6.98
2018-12-24T04:29:00.470Z,6.95
2018-12-24T04:30:00.439Z,7.05
2018-12-24T04:31:00.383Z,6.97
2018-12-24T04:32:00.342Z,7.02
2018-12-24T04:33:00.297Z,6.98
2018-12-24T04:34:00.253Z,6.94
2018-12-24T04:35:00.290Z,7.03
2018-12-24T04:36:00.180Z,6.94
2018-12-24T04:37:00.132Z,6.99
2018-12-24T04:38:00.086Z,6.99
2018-12-24T04:39:00.047Z,6.98
2018-12-24T04:40:00.022Z,7.02
2018-12-24T04:40:59.949Z,6.99
2018-12-24T04:41:59.956Z,6.97
2018-12-24T04:42:59.846Z,6.97
2018-12-24T04:43:59.846Z,6.92
2018-12-24T04:44:59.810Z,6.98
2018-12-24T04:45:59.743Z,6.95
2018-12-24T04:46:59.683Z,6.98
2018-12-24T04:47:59.838Z,6.97
2018-12-24T04:48:59.610Z,7.02
2018-12-24T04:49:59.551Z,6.98
2018-12-24T04:50:59.539Z,6.92
2018-12-24T04:51:59.473Z,7.03
2018-12-24T04:52:59.444Z,7.02
2018-12-24T04:53:59.390Z,6.98
2018-12-24T04:54:59.341Z,7.05
2018-12-24T04:55:59.338Z,7.02
2018-12-24T04:56:59.249Z,6.97
2018-12-24T04:57:59.201Z,7.02
2018-12-24T04:58:59.216Z,7.05
2018-12-24T04:59:59.111Z,7.02
2018-12-24T05:00:59.069Z,6.85
2018-12-24T05:01:59.053Z,6.99
2018-12-24T05:02:58.980Z,6.99
2018-12-24T05:03:58.985Z,6.95
2018-12-24T05:04:58.905Z,6.97
2018-12-24T05:05:58.856Z,6.99
2018-12-24T05:06:58.825Z,6.85
2018-12-24T05:07:58.758Z,6.99
2018-12-24T05:08:58.740Z,6.98
2018-12-24T05:09:58.726Z,6.98
2018-12-24T05:10:58.647Z,6.99
2018-12-24T05:11:58.578Z,7.03
2018-12-24T05:12:58.573Z,7.03
2018-12-24T05:13:58.530Z,7.02
2018-12-24T05:14:58.476Z,7.02
2018-12-24T05:15:58.424Z,6.99
2018-12-24T05:16:58.381Z,6.98
2018-12-24T05:17:58.331Z,6.98
2018-12-24T05:18:58.295Z,7.03
2018-12-24T05:19:58.270Z,6.98
2018-12-24T05:20:58.197Z,6.98
2018-12-24T05:21:58.171Z,7.06
2018-12-24T05:22:58.104Z,7.03
2018-12-24T05:23:58.071Z,6.99
2018-12-24T05:24:58.045Z,6.94
2018-12-24T05:25:58.017Z,6.99
2018-12-24T05:26:57.926Z,6.99
2018-12-24T05:27:57.890Z,6.98
2018-12-24T05:28:57.864Z,6.98
2018-12-24T05:29:57.823Z,6.94
2018-12-24T05:30:57.789Z,7.02
2018-12-24T05:31:57.726Z,6.98
2018-12-24T05:32:57.701Z,6.98
2018-12-24T05:33:57.615Z,7.03
2018-12-24T05:34:57.595Z,6.98
2018-12-24T05:35:57.556Z,6.95
2018-12-24T05:36:57.522Z,7.03
2018-12-24T05:37:57.472Z,6.98
2018-12-24T05:38:57.441Z,6.99
2018-12-24T05:39:57.375Z,6.95
2018-12-24T05:41:06.389Z,6.97
2018-12-24T05:42:06.376Z,6.99
2018-12-24T05:43:06.430Z,6.95
2018-12-24T05:43:57.202Z,6.98
2018-12-24T05:44:57.176Z,6.97
2018-12-24T05:45:57.112Z,6.98
2018-12-24T05:46:57.101Z,6.95
2018-12-24T05:47:57.020Z,6.98
2018-12-24T05:48:56.955Z,6.99
2018-12-24T05:49:56.954Z,6.92
2018-12-24T05:50:56.887Z,6.97
2018-12-24T05:51:56.887Z,7.02
2018-12-24T05:52:56.798Z,7.03
2018-12-24T05:53:56.755Z,7.06
2018-12-24T05:54:56.706Z,6.94
2018-12-24T05:55:56.666Z,6.97
2018-12-24T05:56:56.656Z,7.15
2018-12-24T05:57:56.576Z,6.98
2018-12-24T05:58:56.539Z,7.09
2018-12-24T05:59:56.482Z,6.99
2018-12-24T06:00:56.443Z,7.02
2018-12-24T06:01:56.404Z,7.02
2018-12-24T06:02:56.384Z,6.95
2018-12-24T06:03:56.340Z,6.98
2018-12-24T06:04:56.280Z,7.05
2018-12-24T06:05:56.217Z,6.99
2018-12-24T06:06:56.178Z,7.12
2018-12-24T06:07:56.164Z,7.07
2018-12-24T06:08:56.107Z,7.05
2018-12-24T06:09:56.039Z,6.94
2018-12-24T06:10:56.011Z,7.12
2018-12-24T06:11:56.238Z,6.92
2018-12-24T06:12:55.958Z,7.07
2018-12-24T06:13:58.126Z,6.97
2018-12-24T06:14:55.858Z,6.98
2018-12-24T06:15:55.811Z,6.98
2018-12-24T06:16:55.788Z,6.97
2018-12-24T06:17:57.638Z,7.05
2018-12-24T06:18:55.656Z,7.05
2018-12-24T06:19:55.633Z,7.03
2018-12-24T06:20:55.563Z,6.94
2018-12-24T06:21:55.542Z,7.02
2018-12-24T06:22:55.515Z,6.85
2018-12-24T06:23:55.451Z,6.99
2018-12-24T06:24:55.389Z,6.95
2018-12-24T06:25:55.769Z,6.87
2018-12-24T06:26:55.323Z,6.95
2018-12-24T06:27:55.306Z,6.97
2018-12-24T06:28:55.231Z,7.03
2018-12-24T06:29:55.187Z,6.98
2018-12-24T06:30:55.128Z,7.03
2018-12-24T06:31:55.100Z,6.98
2018-12-24T06:32:55.034Z,7.05
2018-12-24T06:33:55.038Z,6.89
2018-12-24T06:34:54.961Z,7.02
2018-12-24T06:35:54.912Z,6.94
2018-12-24T06:36:54.887Z,6.98
2018-12-24T06:37:54.819Z,6.87
2018-12-24T06:38:54.829Z,7.02
2018-12-24T06:39:54.745Z,6.99
2018-12-24T06:40:54.702Z,6.99
2018-12-24T06:41:54.634Z,7.03
2018-12-24T06:42:54.603Z,6.98
2018-12-24T06:43:54.607Z,6.98
2018-12-24T06:44:54.579Z,6.95
2018-12-24T06:45:54.472Z,6.91
2018-12-24T06:46:54.436Z,6.94
2018-12-24T06:47:54.400Z,6.97
2018-12-24T06:48:54.350Z,6.95
2018-12-24T06:49:54.318Z,6.97
2018-12-24T06:50:54.274Z,6.94
2018-12-24T06:51:54.217Z,6.87
2018-12-24T06:52:54.175Z,6.97
2018-12-24T06:53:54.149Z,6.98
2018-12-24T06:54:54.094Z,6.87
2018-12-24T06:55:54.082Z,6.88
2018-12-24T06:56:54.007Z,6.99
2018-12-24T06:57:53.959Z,6.88
2018-12-24T06:58:53.916Z,6.88
2018-12-24T06:59:53.860Z,7.02
2018-12-24T07:00:53.855Z,7.02
2018-12-24T07:01:53.797Z,6.95
2018-12-24T07:02:53.742Z,7.02
2018-12-24T07:03:53.693Z,6.92
2018-12-24T07:04:53.650Z,6.91
2018-12-24T07:05:53.646Z,6.87
2018-12-24T07:06:53.560Z,6.95
2018-12-24T07:07:53.504Z,6.92
2018-12-24T07:08:53.469Z,6.91
2018-12-24T07:09:53.440Z,6.88
2018-12-24T07:10:53.415Z,6.85
2018-12-24T07:11:53.387Z,6.87
2018-12-24T07:12:53.321Z,6.91
2018-12-24T07:13:53.251Z,6.95
2018-12-24T07:14:53.215Z,6.94
2018-12-24T07:15:53.180Z,6.87
2018-12-24T07:16:53.181Z,6.85
2018-12-24T07:17:53.074Z,6.94
2018-12-24T07:18:53.036Z,6.92
2018-12-24T07:19:52.983Z,6.98
2018-12-24T07:20:52.953Z,6.92
2018-12-24T07:21:52.958Z,6.95
2018-12-24T07:22:52.872Z,6.85
2018-12-24T07:23:52.818Z,6.94
2018-12-24T07:24:52.796Z,6.92
2018-12-24T07:25:52.719Z,6.94
2018-12-24T07:26:52.707Z,6.87
2018-12-24T07:27:52.640Z,6.99
2018-12-24T07:28:59.003Z,6.95
2018-12-24T07:29:52.587Z,6.87
2018-12-24T07:30:52.538Z,7.06
2018-12-24T07:31:52.476Z,6.88
2018-12-24T07:32:52.436Z,6.94
2018-12-24T07:33:52.406Z,6.97
2018-12-24T07:34:52.338Z,6.94
2018-12-24T07:35:52.304Z,6.95
2018-12-24T07:36:52.254Z,6.97
2018-12-24T07:37:52.219Z,6.85
2018-12-24T07:38:52.156Z,6.97
2018-12-24T07:39:52.121Z,6.95
2018-12-24T07:40:52.063Z,6.89
2018-12-24T07:41:52.040Z,6.87
2018-12-24T07:42:52.002Z,6.85
2018-12-24T07:43:52.020Z,6.94
2018-12-24T07:44:51.896Z,6.97
2018-12-24T07:45:51.877Z,6.91
2018-12-24T07:46:51.824Z,6.94
2018-12-24T07:47:51.783Z,6.87
2018-12-24T07:48:51.770Z,6.95
2018-12-24T07:49:51.670Z,6.97
2018-12-24T07:50:51.670Z,6.91
2018-12-24T07:51:51.602Z,7.02
2018-12-24T07:52:51.549Z,6.87
2018-12-24T07:53:51.570Z,6.88
2018-12-24T07:54:51.462Z,6.98
2018-12-24T07:55:51.428Z,6.98
2018-12-24T07:56:51.366Z,6.99
2018-12-24T07:57:51.317Z,7.05
2018-12-24T07:58:51.277Z,6.98
2018-12-24T07:59:51.292Z,6.98
2018-12-24T08:00:51.247Z,6.95
2018-12-24T08:01:51.153Z,7.02
2018-12-24T08:02:51.100Z,6.97
2018-12-24T08:03:51.075Z,6.98
2018-12-24T08:04:51.027Z,6.95
2018-12-24T08:05:51.004Z,7.03
2018-12-24T08:06:50.929Z,6.99
2018-12-24T08:07:50.893Z,6.99
2018-12-24T08:08:50.863Z,6.97
2018-12-24T08:09:50.795Z,6.95
2018-12-24T08:10:50.772Z,7.02
2018-12-24T08:11:50.710Z,6.97
2018-12-24T08:12:50.681Z,7.02
2018-12-24T08:13:50.645Z,7.06
2018-12-24T08:14:50.581Z,6.95
2018-12-24T08:15:50.602Z,6.98
2018-12-24T08:16:50.504Z,6.98
2018-12-24T08:17:50.467Z,7.03
2018-12-24T08:18:50.417Z,6.97
2018-12-24T08:19:50.375Z,6.94
2018-12-24T08:20:50.354Z,6.92
2018-12-24T08:21:50.297Z,6.92
2018-12-24T08:22:50.238Z,6.95
2018-12-24T08:23:50.192Z,6.95
2018-12-24T08:24:50.153Z,7.09
2018-12-24T08:25:50.113Z,6.92
2018-12-24T08:26:52.326Z,7.10
2018-12-24T08:27:50.017Z,6.95
2018-12-24T08:28:49.989Z,6.97
2018-12-24T08:29:49.929Z,7.09
2018-12-24T08:30:49.876Z,7.12
2018-12-24T08:31:49.866Z,6.97
2018-12-24T08:32:49.801Z,7.07
2018-12-24T08:33:49.760Z,7.06
2018-12-24T08:34:49.710Z,7.15
2018-12-24T08:35:49.663Z,7.09
2018-12-24T08:36:49.639Z,7.10
2018-12-24T08:37:49.597Z,7.09
2018-12-24T08:38:49.573Z,7.07
2018-12-24T08:39:49.492Z,7.09
2018-12-24T08:40:49.452Z,7.07
2018-12-24T08:41:49.398Z,7.12
2018-12-24T08:42:49.381Z,7.09
2018-12-24T08:43:49.310Z,7.21
2018-12-24T08:44:49.271Z,7.27
2018-12-24T08:45:49.240Z,7.25
2018-12-24T08:46:49.197Z,7.25
2018-12-24T08:47:49.174Z,7.27
2018-12-24T08:48:49.205Z,7.34
2018-12-24T08:49:49.168Z,7.24
2018-12-24T08:50:49.031Z,7.17
2018-12-24T08:51:49.113Z,7.28
2018-12-24T08:52:48.946Z,7.30
2018-12-24T08:53:49.013Z,7.28
2018-12-24T08:54:48.878Z,7.16
2018-12-24T08:55:48.925Z,7.24
2018-12-24T08:56:49.061Z,7.25
2018-12-24T08:57:48.909Z,7.17
2018-12-24T08:58:49.055Z,7.23
2018-12-24T08:59:48.646Z,7.23
2018-12-24T09:00:48.588Z,7.24
2018-12-24T09:01:48.613Z,7.27
2018-12-24T09:02:48.578Z,7.32
2018-12-24T09:03:48.596Z,7.37
2018-12-24T09:04:48.596Z,7.37
2018-12-24T09:05:48.601Z,7.28
2018-12-24T09:06:48.483Z,7.27
2018-12-24T09:07:48.452Z,7.25
2018-12-24T09:08:48.267Z,7.25
2018-12-24T09:09:48.206Z,7.27
2018-12-24T09:10:48.147Z,7.30
2018-12-24T09:11:48.123Z,7.32
2018-12-24T09:12:48.085Z,7.37
2018-12-24T09:13:48.027Z,7.35
2018-12-24T09:14:50.291Z,7.37
2018-12-24T09:15:47.943Z,7.39
2018-12-24T09:16:47.911Z,7.43
2018-12-24T09:17:47.869Z,7.30
2018-12-24T09:18:47.799Z,7.27
2018-12-24T09:19:47.751Z,7.30
2018-12-24T09:20:52.641Z,7.28
2018-12-24T09:21:47.712Z,7.25
2018-12-24T09:22:47.627Z,7.34
2018-12-24T09:23:47.615Z,7.31
2018-12-24T09:24:47.600Z,7.31
2018-12-24T09:25:47.511Z,7.25
2018-12-24T09:26:47.466Z,7.27
2018-12-24T09:27:47.423Z,7.24
2018-12-24T09:28:47.376Z,7.25
2018-12-24T09:29:47.346Z,7.30
2018-12-24T09:30:47.284Z,7.24
2018-12-24T09:31:47.258Z,7.27
2018-12-24T09:32:47.198Z,7.28
2018-12-24T09:33:47.143Z,7.30
2018-12-24T09:34:47.119Z,7.34
2018-12-24T09:35:47.188Z,7.20
2018-12-24T09:36:47.045Z,7.17
2018-12-24T09:37:46.977Z,7.21
2018-12-24T09:38:46.941Z,7.20
2018-12-24T09:39:46.896Z,7.06
2018-12-24T09:40:46.863Z,7.13
2018-12-24T09:41:46.804Z,7.43
2018-12-24T09:42:46.782Z,7.52
2018-12-24T09:43:46.720Z,8.10
2018-12-24T09:44:46.681Z,8.44
2018-12-24T09:45:46.663Z,8.92
2018-12-24T09:46:46.581Z,9.21
2018-12-24T09:47:46.565Z,9.64
2018-12-24T09:48:46.501Z,9.83
2018-12-24T09:49:46.465Z,9.84
2018-12-24T09:50:46.408Z,10.02
2018-12-24T09:51:46.418Z,10.12
2018-12-24T09:52:46.350Z,10.20
2018-12-24T09:53:46.287Z,10.15
2018-12-24T09:54:46.249Z,10.02
2018-12-24T09:55:46.204Z,10.07
2018-12-24T09:56:46.163Z,9.66
2018-12-24T09:57:46.141Z,9.40
2018-12-24T09:58:46.084Z,9.48
2018-12-24T09:59:46.041Z,9.23
2018-12-24T10:00:46.006Z,8.92
2018-12-24T10:01:45.974Z,8.61
2018-12-24T10:02:45.938Z,8.28
2018-12-24T10:03:45.870Z,8.58
2018-12-24T10:04:54.973Z,9.18
2018-12-24T10:05:45.800Z,9.36
2018-12-24T10:06:45.753Z,9.32
2018-12-24T10:07:45.738Z,9.54
2018-12-24T10:08:45.658Z,9.86
2018-12-24T10:09:45.613Z,10.17
2018-12-24T10:10:45.581Z,10.18
2018-12-24T10:11:45.539Z,10.14
2018-12-24T10:12:45.521Z,10.59
2018-12-24T10:13:45.458Z,10.64
2018-12-24T10:14:45.458Z,10.51
2018-12-24T10:15:45.409Z,10.48
2018-12-24T10:16:45.346Z,10.34
2018-12-24T10:17:45.305Z,10.14
2018-12-24T10:18:45.245Z,10.27
2018-12-24T10:19:45.215Z,10.48
2018-12-24T10:20:45.250Z,10.47
2018-12-24T10:21:45.160Z,10.56
2018-12-24T10:22:45.111Z,10.71
2018-12-24T10:23:45.062Z,11.07
2018-12-24T10:24:45.025Z,11.32
2018-12-24T10:25:44.978Z,11.58
2018-12-24T10:26:44.946Z,11.64
2018-12-24T10:27:44.951Z,11.70
2018-12-24T10:28:44.879Z,11.58
2018-12-24T10:29:44.866Z,11.46
2018-12-24T10:30:44.773Z,11.60
2018-12-24T10:31:44.754Z,11.58
2018-12-24T10:32:44.703Z,11.33
2018-12-24T10:33:44.709Z,11.25
2018-12-24T10:34:44.650Z,10.94
2018-12-24T10:35:44.586Z,10.76
2018-12-24T10:36:44.580Z,10.56
2018-12-24T10:37:44.525Z,10.60
2018-12-24T10:38:44.507Z,10.64
2018-12-24T10:39:44.466Z,11.02
2018-12-24T10:40:44.436Z,11.25
2018-12-24T10:41:44.361Z,11.54
2018-12-24T10:42:44.357Z,11.79
2018-12-24T10:43:44.292Z,10.92
2018-12-24T10:44:44.281Z,10.63
2018-12-24T10:45:44.228Z,10.82
2018-12-24T10:46:44.214Z,10.92
2018-12-24T10:47:44.142Z,11.11
2018-12-24T10:48:44.110Z,11.28
2018-12-24T10:49:44.066Z,11.28
2018-12-24T10:50:44.066Z,11.35
2018-12-24T10:51:44.045Z,11.27
2018-12-24T10:52:43.969Z,11.18
2018-12-24T10:53:43.916Z,11.18
2018-12-24T10:54:43.892Z,11.18
2018-12-24T10:55:43.864Z,11.25
2018-12-24T10:56:43.799Z,11.42
2018-12-24T10:57:43.782Z,11.43
2018-12-24T10:58:43.731Z,11.52
2018-12-24T10:59:43.694Z,11.37
2018-12-24T11:00:43.688Z,11.28
2018-12-24T11:01:44.684Z,11.29
2018-12-24T11:02:43.581Z,11.25
2018-12-24T11:03:43.555Z,11.22
2018-12-24T11:04:43.511Z,11.37
2018-12-24T11:05:43.513Z,11.25
2018-12-24T11:06:43.420Z,11.44
2018-12-24T11:07:43.386Z,11.44
2018-12-24T11:08:43.352Z,11.43
2018-12-24T11:09:43.319Z,11.19
2018-12-24T11:10:43.318Z,11.19
2018-12-24T11:11:43.254Z,11.24
2018-12-24T11:12:43.199Z,11.40
2018-12-24T11:13:43.168Z,11.49
2018-12-24T11:14:43.138Z,11.15
2018-12-24T11:15:43.090Z,10.89
2018-12-24T11:16:43.093Z,10.78
2018-12-24T11:17:43.047Z,10.79
2018-12-24T11:18:42.978Z,10.70
2018-12-24T11:19:42.932Z,10.30
2018-12-24T11:20:42.905Z,10.18
2018-12-24T11:21:42.861Z,10.48
2018-12-24T11:22:42.840Z,10.52
2018-12-24T11:23:42.791Z,10.60
2018-12-24T11:24:42.753Z,10.47
2018-12-24T11:25:42.720Z,10.59
2018-12-24T11:26:42.699Z,10.85
2018-12-24T11:27:42.666Z,11.04
2018-12-24T11:28:42.604Z,11.10
2018-12-24T11:29:42.548Z,11.14
2018-12-24T11:30:42.544Z,11.00
2018-12-24T11:31:42.554Z,10.91
2018-12-24T11:32:42.455Z,10.60
2018-12-24T11:33:42.445Z,10.30
2018-12-24T11:34:42.385Z,9.87
2018-12-24T11:35:42.342Z,9.84
2018-12-24T11:36:42.304Z,9.97
2018-12-24T11:37:42.367Z,10.27
2018-12-24T11:38:42.291Z,10.27
2018-12-24T11:39:42.201Z,10.32
2018-12-24T11:40:42.382Z,10.23
2018-12-24T11:41:42.208Z,10.22
2018-12-24T11:42:42.223Z,10.17
2018-12-24T11:43:42.179Z,10.23
2018-12-24T11:44:42.043Z,10.11
2018-12-24T11:45:41.991Z,10.09
2018-12-24T11:46:41.949Z,10.33
2018-12-24T11:47:41.901Z,10.55
2018-12-24T11:48:41.880Z,10.66
2018-12-24T11:49:41.810Z,10.79
2018-12-24T11:50:41.804Z,10.63
2018-12-24T11:51:41.724Z,10.68
2018-12-24T11:52:41.706Z,10.42
2018-12-24T11:53:41.671Z,10.32
2018-12-24T11:54:41.585Z,9.99
2018-12-24T11:55:41.554Z,10.02
2018-12-24T11:56:41.526Z,10.18
2018-12-24T11:57:41.499Z,10.18
2018-12-24T11:58:41.464Z,10.15
2018-12-24T11:59:41.416Z,9.99
2018-12-24T12:00:41.383Z,10.01
2018-12-24T12:01:41.356Z,10.25
2018-12-24T12:02:41.297Z,10.22
2018-12-24T12:03:41.287Z,10.18
2018-12-24T12:04:41.223Z,10.07
2018-12-24T12:05:41.189Z,9.87
2018-12-24T12:06:41.145Z,9.96
2018-12-24T12:07:41.118Z,9.68
2018-12-24T12:08:41.110Z,9.57
2018-12-24T12:09:41.030Z,9.35
2018-12-24T12:10:41.015Z,9.48
2018-12-24T12:11:41.000Z,9.24
2018-12-24T12:12:40.989Z,9.18
2018-12-24T12:13:40.926Z,9.17
2018-12-24T12:14:40.823Z,9.14
2018-12-24T12:15:42.807Z,9.15
2018-12-24T12:16:40.807Z,9.20
2018-12-24T12:17:40.703Z,9.39
2018-12-24T12:18:40.732Z,9.40
2018-12-24T12:19:40.632Z,9.38
2018-12-24T12:20:40.608Z,9.39
2018-12-24T12:21:40.544Z,9.53
2018-12-24T12:22:40.574Z,9.38
2018-12-24T12:23:40.476Z,9.15
2018-12-24T12:24:40.464Z,9.17
2018-12-24T12:25:40.392Z,8.99
2018-12-24T12:26:40.357Z,8.80
2018-12-24T12:27:40.330Z,8.68
2018-12-24T12:28:40.312Z,8.63
2018-12-24T12:29:40.271Z,8.48
2018-12-24T12:30:40.209Z,8.47
2018-12-24T12:31:40.164Z,8.45
2018-12-24T12:32:40.128Z,8.36
2018-12-24T12:33:40.089Z,8.37
2018-12-24T12:34:40.059Z,8.43
2018-12-24T12:35:40.053Z,8.34
2018-12-24T12:36:39.982Z,8.37
2018-12-24T12:37:40.019Z,8.40
2018-12-24T12:38:39.886Z,8.28
2018-12-24T12:39:39.882Z,8.25
2018-12-24T12:40:39.853Z,8.20
2018-12-24T12:41:39.761Z,8.10
2018-12-24T12:42:39.739Z,8.12
2018-12-24T12:43:39.677Z,8.15
2018-12-24T12:44:39.637Z,8.07
2018-12-24T12:45:39.648Z,8.07
2018-12-24T12:46:39.572Z,7.95
2018-12-24T12:47:39.503Z,7.98
2018-12-24T12:48:39.479Z,7.98
2018-12-24T12:49:39.439Z,7.92
2018-12-24T12:50:39.438Z,7.92
2018-12-24T12:51:39.379Z,7.86
2018-12-24T12:52:39.333Z,7.82
2018-12-24T12:53:39.275Z,7.92
2018-12-24T12:54:39.217Z,7.69
2018-12-24T12:55:39.211Z,7.80
2018-12-24T12:56:39.166Z,7.74
2018-12-24T12:57:39.115Z,7.85
2018-12-24T12:58:39.041Z,7.86
2018-12-24T12:59:39.006Z,7.87
2018-12-24T13:00:38.964Z,7.93
2018-12-24T13:01:39.018Z,7.92
2018-12-24T13:02:38.878Z,7.93
2018-12-24T13:03:38.867Z,7.92
2018-12-24T13:04:38.801Z,7.93
2018-12-24T13:05:38.775Z,7.87
2018-12-24T13:06:38.740Z,7.90
2018-12-24T13:07:38.666Z,7.89
2018-12-24T13:08:38.627Z,7.82
2018-12-24T13:09:38.574Z,7.80
2018-12-24T13:10:38.551Z,7.93
2018-12-24T13:11:38.533Z,7.89
2018-12-24T13:12:38.474Z,7.92
2018-12-24T13:13:38.428Z,7.89